createdAt,value
2019-02-09T00:04:52.001Z,98820.80
2019-02-09T00:07:35.554Z,98820.55
2019-02-09T00:10:25.861Z,98819.88
2019-02-09T00:13:08.993Z,98821.95
2019-02-09T00:15:59.299Z,98800.39
2019-02-09T00:18:41.813Z,98810.67
2019-02-09T00:21:32.121Z,98815.11
2019-02-09T00:24:15.304Z,98809.16
2019-02-09T00:27:05.693Z,98799.33
2019-02-09T00:29:49.047Z,98812.19
2019-02-09T00:32:39.348Z,98815.36
2019-02-09T00:35:22.741Z,98824.47
2019-02-09T00:38:13.035Z,98814.25
2019-02-09T00:40:55.922Z,98813.76
2019-02-09T00:44:05.459Z,98822.22
2019-02-09T00:46:55.841Z,98794.85
2019-02-09T00:49:46.124Z,98809.31
2019-02-09T00:52:29.519Z,98794.66
2019-02-09T00:55:19.852Z,98778.48
2019-02-09T00:58:02.953Z,98757.03
2019-02-09T01:00:53.269Z,98715.23
2019-02-09T01:03:36.662Z,98771.83
2019-02-09T01:06:26.995Z,98760.25
2019-02-09T01:09:11.830Z,98749.22
2019-02-09T01:12:02.183Z,98751.55
2019-02-09T01:14:45.541Z,98745.70
2019-02-09T01:17:35.843Z,98756.52
2019-02-09T01:20:21.566Z,98748.21
2019-02-09T01:23:11.935Z,98741.86
2019-02-09T01:25:54.696Z,98730.43
2019-02-09T01:28:45.033Z,98742.47
2019-02-09T01:31:27.959Z,98726.26
2019-02-09T01:34:18.281Z,98731.81
2019-02-09T01:37:01.238Z,98738.11
2019-02-09T01:39:51.581Z,98719.23
2019-02-09T01:42:34.155Z,98723.50
2019-02-09T01:49:13.362Z,98715.09
2019-02-09T01:52:03.713Z,98715.84
2019-02-09T01:54:54.084Z,98716.64
2019-02-09T01:57:37.410Z,98715.33
2019-02-09T02:01:08.258Z,98737.84
2019-02-09T02:03:51.390Z,98742.83
2019-02-09T02:06:41.784Z,98714.23
2019-02-09T02:09:24.424Z,98708.25
2019-02-09T02:12:14.775Z,98711.11
2019-02-09T02:14:57.795Z,98716.95
2019-02-09T02:17:48.141Z,98713.28
2019-02-09T02:20:31.518Z,98716.41
2019-02-09T02:23:21.840Z,98711.38
2019-02-09T02:26:04.833Z,98721.59
2019-02-09T02:28:55.172Z,98710.45
2019-02-09T02:31:38.638Z,98696.30
2019-02-09T02:37:30.753Z,98690.05
2019-02-09T02:40:13.575Z,98695.59
2019-02-09T02:46:32.865Z,98700.92
2019-02-09T02:52:25.627Z,98684.10
2019-02-09T02:55:17.745Z,98700.97
2019-02-09T02:58:00.972Z,98690.72
2019-02-09T03:00:51.342Z,98677.63
2019-02-09T03:03:34.716Z,98670.61
2019-02-09T03:06:25.088Z,98665.38
2019-02-09T03:09:08.691Z,98686.23
2019-02-09T03:11:59.012Z,98686.43
2019-02-09T03:14:42.335Z,98696.09
2019-02-09T03:17:32.722Z,98691.77
2019-02-09T03:20:15.939Z,98681.48
2019-02-09T03:23:06.281Z,98697.39
2019-02-09T03:25:48.904Z,98694.78
2019-02-09T03:28:39.271Z,98700.02
2019-02-09T03:31:22.533Z,98702.38
2019-02-09T03:34:12.866Z,98732.45
2019-02-09T03:36:55.722Z,98720.06
2019-02-09T03:39:46.087Z,98714.85
2019-02-09T03:42:28.760Z,98713.73
2019-02-09T03:45:24.408Z,98747.81
2019-02-09T03:48:07.255Z,98735.72
2019-02-09T03:50:57.742Z,98745.35
2019-02-09T03:53:40.787Z,98737.42
2019-02-09T03:56:31.142Z,98733.75
2019-02-09T03:59:13.879Z,98741.06
2019-02-09T04:05:32.643Z,98748.98
2019-02-09T04:08:22.970Z,98735.42
2019-02-09T04:11:06.419Z,98735.42
2019-02-09T04:13:56.762Z,98742.34
2019-02-09T04:16:40.118Z,98742.70
2019-02-09T04:19:30.445Z,98747.44
2019-02-09T04:22:13.031Z,98764.64
2019-02-09T04:25:03.351Z,98761.96
2019-02-09T04:27:46.644Z,98783.84
2019-02-09T04:30:36.955Z,98774.05
2019-02-09T04:33:20.029Z,98771.36
2019-02-09T04:36:10.351Z,98768.94
2019-02-09T04:38:53.364Z,98775.69
2019-02-09T04:41:43.737Z,98769.06
2019-02-09T04:44:26.993Z,98771.66
2019-02-09T04:47:17.362Z,98779.26
2019-02-09T04:50:00.496Z,98783.06
2019-02-09T04:52:50.812Z,98777.16
2019-02-09T04:55:33.693Z,98790.50
2019-02-09T04:58:24.037Z,98782.17
2019-02-09T05:01:13.823Z,98789.09
2019-02-09T05:03:51.290Z,98790.59
2019-02-09T05:06:41.638Z,98787.14
2019-02-09T05:09:24.556Z,98800.52
2019-02-09T05:12:14.911Z,98800.26
2019-02-09T05:14:57.421Z,98796.30
2019-02-09T05:17:47.770Z,98805.31
2019-02-09T05:20:30.497Z,98812.33
2019-02-09T05:23:13.950Z,98821.14
2019-02-09T05:26:04.298Z,98807.38
2019-02-09T05:28:47.581Z,98810.27
2019-02-09T05:31:37.924Z,98814.55
2019-02-09T05:34:21.317Z,98824.88
2019-02-09T05:37:11.638Z,98811.54
2019-02-09T05:39:54.868Z,98817.67
2019-02-09T05:42:45.208Z,98818.33
2019-02-09T05:45:28.356Z,98844.05
2019-02-09T05:48:18.672Z,98833.30
2019-02-09T05:51:02.196Z,98857.36
2019-02-09T05:53:52.636Z,98848.48
2019-02-09T05:56:35.187Z,98858.28
2019-02-09T05:59:25.520Z,98874.14
2019-02-09T06:02:08.720Z,98862.14
2019-02-09T06:04:59.121Z,98866.60
2019-02-09T06:07:42.198Z,98870.02
2019-02-09T06:10:32.592Z,98886.50
2019-02-09T06:13:15.684Z,98890.17
2019-02-09T06:15:58.893Z,98878.90
2019-02-09T06:18:49.236Z,98877.59
2019-02-09T06:21:32.586Z,98902.23
2019-02-09T06:24:22.895Z,98889.28
2019-02-09T06:27:06.160Z,98885.19
2019-02-09T06:29:56.481Z,98900.73
2019-02-09T06:32:39.957Z,98922.86
2019-02-09T06:35:30.527Z,98881.45
2019-02-09T06:38:13.676Z,98895.69
2019-02-09T06:41:04.011Z,98908.98
2019-02-09T06:43:47.103Z,98911.42
2019-02-09T06:46:37.444Z,98928.20
2019-02-09T06:49:20.599Z,98903.55
2019-02-09T06:52:10.935Z,98929.21
2019-02-09T06:54:54.207Z,98924.53
2019-02-09T06:57:44.655Z,98926.50
2019-02-09T07:00:28.001Z,98925.89
2019-02-09T07:03:18.324Z,98928.70
2019-02-09T07:06:00.993Z,98935.41
2019-02-09T07:08:43.747Z,98952.75
2019-02-09T07:11:53.284Z,98939.55
2019-02-09T07:14:54.181Z,98941.66
2019-02-09T07:17:44.574Z,98946.39
2019-02-09T07:20:27.138Z,98940.30
2019-02-09T07:23:17.491Z,98952.13
2019-02-09T07:26:00.393Z,98952.67
2019-02-09T07:28:50.734Z,98992.53
2019-02-09T07:31:34.095Z,98977.05
2019-02-09T07:34:24.465Z,99001.09
2019-02-09T07:37:07.665Z,99025.37
2019-02-09T07:39:58.024Z,99010.33
2019-02-09T07:42:41.042Z,99013.66
2019-02-09T07:45:31.460Z,99010.59
2019-02-09T07:48:14.776Z,99020.30
2019-02-09T07:51:05.239Z,99006.28
2019-02-09T07:53:48.037Z,99015.99
2019-02-09T07:56:38.399Z,99016.16
2019-02-09T07:59:21.047Z,99031.56
2019-02-09T08:02:11.405Z,99029.34
2019-02-09T08:04:54.286Z,99017.99
2019-02-09T08:07:44.798Z,99010.59
2019-02-09T08:10:28.810Z,99045.01
2019-02-09T08:13:19.154Z,99058.28
2019-02-09T08:16:02.265Z,99066.61
2019-02-09T08:18:52.601Z,99082.02
2019-02-09T08:21:35.676Z,99064.77
2019-02-09T08:24:26.025Z,99073.09
2019-02-09T08:27:08.589Z,99080.46
2019-02-09T08:29:58.936Z,99097.58
2019-02-09T08:32:42.083Z,99098.33
2019-02-09T08:35:32.451Z,99097.39
2019-02-09T08:38:15.784Z,99086.16
2019-02-09T08:40:58.435Z,99095.08
2019-02-09T08:43:48.831Z,99090.48
2019-02-09T08:46:51.379Z,99075.86
2019-02-09T08:49:41.732Z,99089.42
2019-02-09T08:52:24.468Z,99086.42
2019-02-09T08:55:15.274Z,99081.02
2019-02-09T08:57:58.048Z,99087.72
2019-02-09T09:00:48.515Z,99092.70
2019-02-09T09:03:38.879Z,99092.08
2019-02-09T09:06:29.253Z,99085.72
2019-02-09T09:09:12.298Z,99076.26
2019-02-09T09:12:02.685Z,99124.16
2019-02-09T09:14:45.625Z,99123.06
2019-02-09T09:17:35.986Z,99112.45
2019-02-09T09:20:40.254Z,99111.99
2019-02-09T09:23:30.651Z,99107.00
2019-02-09T09:26:13.378Z,99101.03
2019-02-09T09:29:03.749Z,99094.08
2019-02-09T09:31:47.154Z,99103.56
2019-02-09T09:37:46.340Z,99113.16
2019-02-09T09:44:00.635Z,99107.93
2019-02-09T09:46:43.866Z,99110.98
2019-02-09T09:49:34.216Z,99085.41
2019-02-09T09:52:16.985Z,99106.04
2019-02-09T09:55:07.736Z,99110.64
2019-02-09T09:57:50.969Z,99113.70
2019-02-09T10:00:41.350Z,99112.97
2019-02-09T10:03:24.600Z,99115.53
2019-02-09T10:06:14.985Z,99129.88
2019-02-09T10:08:58.017Z,99109.66
2019-02-09T10:11:48.415Z,99127.22
2019-02-09T10:14:31.830Z,99123.35
2019-02-09T10:17:22.300Z,99123.06
2019-02-09T10:20:06.505Z,99133.98
2019-02-09T10:22:56.971Z,99136.55
2019-02-09T10:25:40.208Z,99117.03
2019-02-09T10:28:51.077Z,99129.86
2019-02-09T10:31:34.313Z,99112.38
2019-02-09T10:34:24.644Z,99130.39
2019-02-09T10:37:07.250Z,99132.91
2019-02-09T10:39:49.956Z,99164.28
2019-02-09T10:42:40.349Z,99131.26
2019-02-09T10:45:24.028Z,99155.27
2019-02-09T10:48:14.684Z,99137.37
2019-02-09T10:51:18.133Z,99167.34
2019-02-09T10:54:08.512Z,99169.16
2019-02-09T10:56:51.067Z,99181.78
2019-02-09T10:59:41.407Z,99152.31
2019-02-09T11:02:24.231Z,99175.72
2019-02-09T11:05:15.234Z,99178.14
2019-02-09T11:07:57.867Z,99160.83
2019-02-09T11:10:48.357Z,99152.29
2019-02-09T11:13:31.725Z,99165.78
2019-02-09T11:16:22.082Z,99168.77
2019-02-09T11:19:05.033Z,99154.44
2019-02-09T11:24:57.090Z,99172.91
2019-02-09T11:27:40.455Z,99163.55
2019-02-09T11:30:49.882Z,99161.77
2019-02-09T11:33:32.461Z,99155.47
2019-02-09T11:36:22.811Z,99163.41
2019-02-09T11:39:07.274Z,99179.36
2019-02-09T11:41:57.645Z,99163.38
2019-02-09T11:44:41.356Z,99143.30
2019-02-09T11:47:31.831Z,99143.11
2019-02-09T11:50:15.051Z,99161.31
2019-02-09T11:53:05.929Z,99146.23
2019-02-09T11:55:48.915Z,99172.10
2019-02-09T11:58:39.266Z,99129.63
2019-02-09T12:01:22.395Z,99144.96
2019-02-09T12:04:05.206Z,99152.95
2019-02-09T12:06:55.629Z,99162.50
2019-02-09T12:09:38.607Z,99149.06
2019-02-09T12:12:28.933Z,99150.52
2019-02-09T12:15:13.351Z,99146.52
2019-02-09T12:21:12.730Z,99177.14
2019-02-09T12:24:03.094Z,99171.58
2019-02-09T12:26:46.619Z,99143.38
2019-02-09T12:29:36.988Z,99178.86
2019-02-09T12:32:19.874Z,99189.49
2019-02-09T12:35:11.528Z,99169.56
2019-02-09T12:37:54.508Z,99175.20
2019-02-09T12:40:44.991Z,99156.40
2019-02-09T12:43:27.554Z,99157.11
2019-02-09T12:46:17.988Z,99156.80
2019-02-09T12:49:01.491Z,99152.21
2019-02-09T12:51:51.886Z,99159.91
2019-02-09T12:54:34.796Z,99153.60
2019-02-09T12:57:25.175Z,99167.20
2019-02-09T13:00:09.812Z,99164.00
2019-02-09T13:03:20.011Z,99173.12
2019-02-09T13:06:03.167Z,99185.44
2019-02-09T13:08:53.549Z,99184.48
2019-02-09T13:11:36.171Z,99160.48
2019-02-09T13:14:26.516Z,99168.84
2019-02-09T13:17:16.970Z,99177.95
2019-02-09T13:20:09.954Z,99181.00
2019-02-09T13:22:53.141Z,99171.05
2019-02-09T13:25:43.473Z,99189.45
2019-02-09T13:28:26.114Z,99172.48
2019-02-09T13:31:16.518Z,99196.05
2019-02-09T13:33:59.502Z,99176.83
2019-02-09T13:36:49.871Z,99165.88
2019-02-09T13:39:33.347Z,99190.39
2019-02-09T13:45:51.554Z,99194.86
2019-02-09T13:48:41.889Z,99184.34
2019-02-09T13:51:24.964Z,99197.05
2019-02-09T13:54:15.357Z,99186.73
2019-02-09T13:57:17.843Z,99169.80
2019-02-09T14:03:57.232Z,99197.84
2019-02-09T14:06:41.123Z,99202.66
2019-02-09T14:09:31.522Z,99187.67
2019-02-09T14:12:14.424Z,99200.95
2019-02-09T14:18:34.601Z,99192.59
2019-02-09T14:21:24.953Z,99224.55
2019-02-09T14:24:07.985Z,99227.95
2019-02-09T14:26:58.358Z,99210.14
2019-02-09T14:29:41.663Z,99235.84
2019-02-09T14:32:32.064Z,99257.73
2019-02-09T14:35:14.626Z,99231.98
2019-02-09T14:38:05.470Z,99244.95
2019-02-09T14:40:48.409Z,99280.06
2019-02-09T14:43:38.818Z,99275.33
2019-02-09T14:46:21.535Z,99296.68
2019-02-09T14:49:11.925Z,99316.17
2019-02-09T14:51:55.053Z,99279.08
2019-02-09T14:54:45.440Z,99275.83
2019-02-09T14:57:28.275Z,99260.41
2019-02-09T15:00:20.679Z,99292.47
2019-02-09T15:03:03.298Z,99276.14
2019-02-09T15:05:46.524Z,99284.77
2019-02-09T15:08:37.415Z,99283.69
2019-02-09T15:11:41.747Z,99287.92
2019-02-09T15:14:32.158Z,99309.23
2019-02-09T15:17:15.620Z,99306.52
2019-02-09T15:20:09.722Z,99303.73
2019-02-09T15:22:53.130Z,99304.67
2019-02-09T15:25:43.519Z,99301.42
2019-02-09T15:28:26.762Z,99310.81
2019-02-09T15:31:17.192Z,99306.34
2019-02-09T15:33:59.761Z,99309.14
2019-02-09T15:36:50.159Z,99320.77
2019-02-09T15:39:33.485Z,99310.67
2019-02-09T15:42:16.290Z,99310.77
2019-02-09T15:48:36.195Z,99307.44
2019-02-09T15:51:26.537Z,99323.43
2019-02-09T15:54:16.879Z,99319.41
2019-02-09T15:56:59.910Z,99327.42
2019-02-09T15:59:50.278Z,99342.39
2019-02-09T16:02:53.872Z,99345.50
2019-02-09T16:05:44.230Z,99336.23
2019-02-09T16:08:27.579Z,99332.52
2019-02-09T16:11:17.934Z,99335.91
2019-02-09T16:14:00.842Z,99340.48
2019-02-09T16:16:51.254Z,99346.09
2019-02-09T16:19:33.954Z,99347.17
2019-02-09T16:22:24.338Z,99348.98
2019-02-09T16:25:07.816Z,99354.80
2019-02-09T16:27:58.281Z,99351.94
2019-02-09T16:30:41.520Z,99345.20
2019-02-09T16:33:31.867Z,99349.59
2019-02-09T16:36:15.277Z,99337.31
2019-02-09T16:39:27.965Z,99356.77
2019-02-09T16:42:10.689Z,99365.28
2019-02-09T16:45:01.121Z,99358.88
2019-02-09T16:47:44.511Z,99356.30
2019-02-09T16:50:34.896Z,99357.55
2019-02-09T16:53:17.799Z,99360.53
2019-02-09T16:56:08.275Z,99367.33
2019-02-09T16:58:50.810Z,99362.39
2019-02-09T17:04:24.005Z,99366.45
2019-02-09T17:07:07.492Z,99371.17
2019-02-09T17:09:57.868Z,99381.77
2019-02-09T17:12:40.763Z,99376.50
2019-02-09T17:15:31.386Z,99377.11
2019-02-09T17:18:14.836Z,99386.45
2019-02-09T17:21:05.216Z,99382.99
2019-02-09T17:23:48.494Z,99405.76
2019-02-09T17:26:57.890Z,99406.55
2019-02-09T17:29:41.174Z,99389.38
2019-02-09T17:32:31.587Z,99412.11
2019-02-09T17:35:14.542Z,99412.98
2019-02-09T17:38:06.580Z,99412.58
2019-02-09T17:41:09.667Z,99415.35
2019-02-09T17:43:52.398Z,99418.78
2019-02-09T17:46:42.795Z,99414.28
2019-02-09T17:49:26.127Z,99424.50
2019-02-09T17:55:45.938Z,99434.38
2019-02-09T17:58:36.329Z,99432.61
2019-02-09T18:01:19.480Z,99433.16
2019-02-09T18:04:09.895Z,99443.66
2019-02-09T18:06:53.367Z,99436.01
2019-02-09T18:09:43.709Z,99450.68
2019-02-09T18:12:27.156Z,99447.28
2019-02-09T18:15:17.936Z,99468.20
2019-02-09T18:18:01.243Z,99466.43
2019-02-09T18:20:51.626Z,99461.09
2019-02-09T18:23:34.921Z,99457.30
2019-02-09T18:26:25.314Z,99468.66
2019-02-09T18:29:08.775Z,99474.30
2019-02-09T18:31:59.243Z,99464.48
2019-02-09T18:34:42.804Z,99474.22
2019-02-09T18:37:33.176Z,99470.97
2019-02-09T18:40:17.253Z,99474.08
2019-02-09T18:43:07.640Z,99469.91
2019-02-09T18:45:57.673Z,99481.87
2019-02-09T18:48:42.958Z,99490.20
2019-02-09T18:51:26.307Z,99485.20
2019-02-09T18:54:16.651Z,99479.64
2019-02-09T18:56:59.487Z,99477.84
2019-02-09T18:59:49.811Z,99477.78
2019-02-09T19:02:38.320Z,99479.64
2019-02-09T19:05:24.648Z,99485.20
2019-02-09T19:08:07.917Z,99482.04
2019-02-09T19:10:58.274Z,99479.88
2019-02-09T19:13:41.344Z,99480.55
2019-02-09T19:16:31.746Z,99495.94
2019-02-09T19:19:14.842Z,99483.18
2019-02-09T19:21:46.225Z,99477.70
2019-02-09T19:24:36.618Z,99482.09
2019-02-09T19:27:19.777Z,99495.48
2019-02-09T19:30:30.915Z,99494.09
2019-02-09T19:33:21.292Z,99499.94
2019-02-09T19:36:04.154Z,99494.14
2019-02-09T19:38:54.538Z,99502.11
2019-02-09T19:44:54.853Z,99499.56
2019-02-09T19:47:45.338Z,99507.36
2019-02-09T19:50:28.451Z,99499.56
2019-02-09T19:53:18.821Z,99488.66
2019-02-09T19:56:02.305Z,99509.34
2019-02-09T19:58:52.698Z,99495.77
2019-02-09T20:01:35.719Z,99501.25
2019-02-09T20:04:26.132Z,99500.61
2019-02-09T20:07:08.927Z,99495.63
2019-02-09T20:09:51.962Z,99494.00
2019-02-09T20:12:42.426Z,99493.59
2019-02-09T20:18:23.930Z,99504.73
2019-02-09T20:21:06.874Z,99485.03
2019-02-09T20:23:57.323Z,99482.34
2019-02-09T20:26:43.042Z,99485.03
2019-02-09T20:29:48.121Z,99470.91
2019-02-09T20:32:40.869Z,99480.15
2019-02-09T20:35:31.412Z,99475.53
2019-02-09T20:38:02.991Z,99478.23
2019-02-09T20:40:59.782Z,99479.91
2019-02-09T20:43:43.026Z,99475.13
2019-02-09T20:46:33.387Z,99485.34
2019-02-09T20:49:16.568Z,99474.36
2019-02-09T20:52:07.011Z,99484.49
2019-02-09T20:54:50.391Z,99476.22
2019-02-09T20:57:42.420Z,99472.22
2019-02-09T21:00:45.372Z,99475.98
2019-02-09T21:03:35.732Z,99482.72
2019-02-09T21:06:39.017Z,99469.59
2019-02-09T21:09:29.434Z,99466.48
2019-02-09T21:12:13.031Z,99459.31
2019-02-09T21:15:03.486Z,99473.20
2019-02-09T21:17:46.374Z,99476.16
2019-02-09T21:20:37.039Z,99465.89
2019-02-09T21:23:27.402Z,99473.59
2019-02-09T21:26:10.120Z,99469.65
2019-02-09T21:29:00.518Z,99464.17
2019-02-09T21:31:43.221Z,99467.47
2019-02-09T21:34:33.579Z,99470.36
2019-02-09T21:37:16.444Z,99461.00
2019-02-09T21:40:09.899Z,99456.84
2019-02-09T21:42:52.924Z,99472.77
2019-02-09T21:45:45.485Z,99469.05
2019-02-09T21:48:48.506Z,99459.37
2019-02-09T21:51:38.876Z,99468.28
2019-02-09T21:54:21.453Z,99469.42
2019-02-09T21:57:11.860Z,99468.28
2019-02-09T21:59:53.971Z,99479.33
2019-02-09T22:02:42.261Z,99470.45
2019-02-09T22:05:29.165Z,99460.23
2019-02-09T22:08:19.277Z,99456.06
2019-02-09T22:11:04.932Z,99453.98
2019-02-09T22:13:48.361Z,99463.95
2019-02-09T22:16:38.765Z,99460.77
2019-02-09T22:19:22.010Z,99453.30
2019-02-09T22:21:53.559Z,99452.38
2019-02-09T22:24:58.639Z,99449.45
2019-02-09T22:27:49.527Z,99445.27
2019-02-09T22:30:32.221Z,99447.13
2019-02-09T22:33:24.610Z,99447.36
2019-02-09T22:36:27.549Z,99442.25
2019-02-09T22:39:17.928Z,99442.57
2019-02-09T22:42:00.579Z,99439.08
2019-02-09T22:44:43.278Z,99440.08
2019-02-09T22:47:33.622Z,99435.23
2019-02-09T22:50:19.254Z,99431.89
2019-02-09T22:53:09.770Z,99432.61
2019-02-09T22:56:12.800Z,99418.31
2019-02-09T22:59:03.232Z,99422.65
2019-02-09T23:01:47.599Z,99416.00
2019-02-09T23:05:00.091Z,99407.50
2019-02-09T23:07:43.663Z,99404.09
2019-02-09T23:10:34.067Z,99410.30
2019-02-09T23:13:17.195Z,99399.41
2019-02-09T23:16:07.627Z,99396.23
2019-02-09T23:18:51.041Z,99386.80
2019-02-09T23:21:41.411Z,99388.98
2019-02-09T23:24:24.443Z,99376.45
2019-02-09T23:27:14.847Z,99372.05
2019-02-09T23:29:57.912Z,99374.53
2019-02-09T23:32:48.284Z,99369.59
2019-02-09T23:35:31.802Z,99366.02
2019-02-09T23:38:22.204Z,99366.02
2019-02-09T23:41:05.211Z,99352.11
2019-02-09T23:43:55.596Z,99335.67
2019-02-09T23:46:38.695Z,99341.39
2019-02-09T23:49:29.067Z,99334.14
2019-02-09T23:52:12.006Z,99340.92
2019-02-09T23:55:02.401Z,99335.44
2019-02-09T23:57:45.939Z,99325.54
